createdAt,value
2022-12-27T00:01:47.268Z,2.14
2022-12-27T00:04:15.060Z,2.16
2022-12-27T00:06:43.015Z,2.17
2022-12-27T00:09:11.093Z,2.18
2022-12-27T00:11:39.565Z,2.21
2022-12-27T00:14:07.732Z,2.22
2022-12-27T00:16:35.613Z,2.24
2022-12-27T00:19:05.175Z,2.26
2022-12-27T00:21:33.593Z,2.27
2022-12-27T00:24:01.633Z,2.26
2022-12-27T00:26:32.990Z,2.24
2022-12-27T00:29:01.374Z,2.23
2022-12-27T00:31:31.147Z,2.24
2022-12-27T00:34:01.403Z,2.24
2022-12-27T00:36:31.122Z,2.24
2022-12-27T00:39:00.475Z,2.25
2022-12-27T00:41:28.716Z,2.26
2022-12-27T00:43:56.606Z,2.28
2022-12-27T00:46:24.484Z,2.29
2022-12-27T00:48:52.414Z,2.31
2022-12-27T00:51:23.127Z,2.34
2022-12-27T00:53:52.484Z,2.33
2022-12-27T00:56:26.696Z,2.30
2022-12-27T00:58:56.099Z,2.28
2022-12-27T01:01:26.067Z,2.26
2022-12-27T01:03:54.131Z,2.25
2022-12-27T01:06:24.553Z,2.24
2022-12-27T01:08:52.407Z,2.25
2022-12-27T01:11:21.423Z,2.30
2022-12-27T01:13:49.584Z,2.34
2022-12-27T01:16:21.845Z,2.38
2022-12-27T01:18:49.975Z,2.41
2022-12-27T01:21:21.180Z,2.43
2022-12-27T01:23:50.408Z,2.41
2022-12-27T01:26:21.158Z,2.38
2022-12-27T01:28:50.289Z,2.36
2022-12-27T01:31:21.994Z,2.36
2022-12-27T01:33:53.582Z,2.38
2022-12-27T01:36:23.772Z,2.38
2022-12-27T01:38:51.713Z,2.39
2022-12-27T01:41:41.798Z,2.41
2022-12-27T01:44:38.461Z,2.42
2022-12-27T01:47:29.577Z,2.45
2022-12-27T01:49:57.348Z,2.50
2022-12-27T01:52:34.910Z,2.53
2022-12-27T01:55:29.518Z,2.56
2022-12-27T01:58:17.378Z,2.59
2022-12-27T02:00:48.100Z,2.63
2022-12-27T02:03:27.068Z,2.70
2022-12-27T02:05:56.437Z,2.77
2022-12-27T02:09:03.239Z,2.80
2022-12-27T02:11:53.855Z,2.79
2022-12-27T02:14:55.366Z,2.80
2022-12-27T02:17:26.825Z,2.82
2022-12-27T02:20:06.795Z,2.82
2022-12-27T02:23:00.363Z,2.83
2022-12-27T02:26:14.467Z,2.83
2022-12-27T02:29:09.613Z,2.86
2022-12-27T02:31:49.816Z,2.88
2022-12-27T02:34:34.654Z,2.89
2022-12-27T02:37:10.272Z,2.91
2022-12-27T02:39:43.579Z,2.93
2022-12-27T02:42:33.737Z,2.94
2022-12-27T02:45:22.077Z,2.95
2022-12-27T02:48:08.740Z,2.96
2022-12-27T02:51:36.851Z,2.98
2022-12-27T02:54:29.317Z,2.97
2022-12-27T02:57:21.792Z,2.94
2022-12-27T03:00:17.712Z,2.93
2022-12-27T03:03:23.226Z,2.94
2022-12-27T03:06:13.900Z,2.94
2022-12-27T03:09:41.014Z,2.95
2022-12-27T03:12:52.419Z,2.92
2022-12-27T03:15:48.992Z,2.89
2022-12-27T03:18:25.214Z,2.88
2022-12-27T03:21:12.298Z,2.91
2022-12-27T03:24:02.041Z,2.93
2022-12-27T03:26:33.465Z,2.96
2022-12-27T03:29:21.990Z,2.96
2022-12-27T03:32:14.576Z,2.95
2022-12-27T03:34:50.277Z,2.94
2022-12-27T03:37:49.552Z,2.94
2022-12-27T03:40:20.289Z,3.00
2022-12-27T03:43:10.867Z,3.04
2022-12-27T03:46:17.478Z,3.05
2022-12-27T03:48:53.634Z,3.05
2022-12-27T03:51:25.003Z,3.03
2022-12-27T03:53:59.997Z,3.03
2022-12-27T03:56:29.462Z,3.04
2022-12-27T03:58:59.702Z,3.05
2022-12-27T04:01:27.653Z,3.00
2022-12-27T04:03:55.899Z,2.95
2022-12-27T04:06:23.882Z,2.93
2022-12-27T04:09:10.623Z,2.92
2022-12-27T04:11:56.991Z,2.94
2022-12-27T04:14:43.598Z,2.98
2022-12-27T04:17:30.348Z,3.03
2022-12-27T04:20:16.574Z,3.06
2022-12-27T04:23:02.966Z,3.08
2022-12-27T04:25:49.682Z,3.10
2022-12-27T04:28:36.190Z,3.11
2022-12-27T04:31:22.762Z,3.12
2022-12-27T04:34:09.329Z,3.13
2022-12-27T04:36:37.237Z,3.17
2022-12-27T04:39:05.299Z,3.21
2022-12-27T04:41:51.648Z,3.26
2022-12-27T04:44:38.160Z,3.29
2022-12-27T04:47:24.753Z,3.33
2022-12-27T04:50:11.202Z,3.35
2022-12-27T04:52:57.865Z,3.38
2022-12-27T04:55:28.643Z,3.39
2022-12-27T04:57:58.234Z,3.41
2022-12-27T05:00:47.099Z,3.43
2022-12-27T05:03:23.568Z,3.44
2022-12-27T05:05:52.650Z,3.43
2022-12-27T05:08:39.609Z,3.42
2022-12-27T05:11:28.707Z,3.41
2022-12-27T05:14:02.307Z,3.36
2022-12-27T05:16:34.548Z,3.30
2022-12-27T05:19:02.872Z,3.27
2022-12-27T05:21:30.861Z,3.27
2022-12-27T05:24:17.705Z,3.29
2022-12-27T05:26:45.612Z,3.32
2022-12-27T05:29:13.548Z,3.31
2022-12-27T05:31:41.552Z,3.31
2022-12-27T05:34:09.485Z,3.32
2022-12-27T05:36:37.355Z,3.35
2022-12-27T05:39:05.203Z,3.39
2022-12-27T05:41:33.077Z,3.44
2022-12-27T05:44:06.803Z,3.49
2022-12-27T05:46:35.959Z,3.53
2022-12-27T05:49:04.271Z,3.55
2022-12-27T05:51:32.188Z,3.58
2022-12-27T05:54:00.225Z,3.61
2022-12-27T05:56:28.033Z,3.64
2022-12-27T05:58:57.300Z,3.67
2022-12-27T06:01:25.200Z,3.70
2022-12-27T06:03:53.079Z,3.73
2022-12-27T06:06:20.899Z,3.75
2022-12-27T06:08:48.897Z,3.78
2022-12-27T06:11:19.570Z,3.78
2022-12-27T06:13:53.012Z,3.79
2022-12-27T06:16:21.889Z,3.81
2022-12-27T06:18:50.392Z,3.83
2022-12-27T06:21:20.565Z,3.86
2022-12-27T06:23:49.717Z,3.87
2022-12-27T06:26:26.608Z,3.87
2022-12-27T06:28:56.519Z,3.88
2022-12-27T06:31:26.840Z,3.89
2022-12-27T06:33:55.894Z,3.89
2022-12-27T06:36:30.446Z,3.89
2022-12-27T06:38:59.694Z,3.91
2022-12-27T06:41:27.595Z,3.95
2022-12-27T06:43:57.853Z,3.98
2022-12-27T06:46:25.957Z,4.03
2022-12-27T06:48:53.987Z,4.07
2022-12-27T06:51:22.027Z,4.10
2022-12-27T06:53:50.537Z,4.12
2022-12-27T06:56:20.625Z,4.14
2022-12-27T06:58:49.986Z,4.15
2022-12-27T07:01:21.228Z,4.17
2022-12-27T07:03:51.064Z,4.19
2022-12-27T07:06:19.607Z,4.21
2022-12-27T07:08:49.153Z,4.25
2022-12-27T07:11:19.172Z,4.27
2022-12-27T07:13:50.146Z,4.28
2022-12-27T07:16:22.306Z,4.29
2022-12-27T07:18:50.428Z,4.30
2022-12-27T07:21:21.199Z,4.30
2022-12-27T07:23:49.788Z,4.30
2022-12-27T07:26:21.943Z,4.31
2022-12-27T07:28:50.122Z,4.30
2022-12-27T07:31:21.029Z,4.31
2022-12-27T07:33:49.122Z,4.33
2022-12-27T07:36:28.675Z,4.36
2022-12-27T07:38:56.610Z,4.39
2022-12-27T07:41:24.828Z,4.40
2022-12-27T07:43:52.822Z,4.42
2022-12-27T07:46:22.838Z,4.46
2022-12-27T07:48:53.869Z,4.49
2022-12-27T07:51:23.028Z,4.53
2022-12-27T07:53:51.546Z,4.56
2022-12-27T07:56:26.826Z,4.60
2022-12-27T07:58:57.507Z,4.63
2022-12-27T08:01:28.201Z,4.67
2022-12-27T08:03:56.506Z,4.72
2022-12-27T08:06:31.813Z,4.76
2022-12-27T08:09:03.413Z,4.80
2022-12-27T08:11:31.264Z,4.85
2022-12-27T08:13:59.173Z,4.85
2022-12-27T08:16:27.443Z,4.83
2022-12-27T08:18:56.310Z,4.86
2022-12-27T08:21:24.254Z,4.90
2022-12-27T08:23:52.238Z,4.91
2022-12-27T08:26:20.270Z,4.96
2022-12-27T08:28:48.320Z,4.98
2022-12-27T08:31:16.257Z,5.02
2022-12-27T08:33:44.405Z,5.07
2022-12-27T08:36:45.331Z,5.15
2022-12-27T08:39:01.214Z,5.25
2022-12-27T08:41:29.451Z,5.36
2022-12-27T08:43:57.341Z,5.49
2022-12-27T08:46:25.657Z,5.63
2022-12-27T08:48:53.663Z,5.74
2022-12-27T08:51:32.831Z,5.87
2022-12-27T08:54:06.938Z,5.99
2022-12-27T08:56:34.894Z,6.09
2022-12-27T08:59:03.219Z,6.17
2022-12-27T09:01:31.343Z,6.25
2022-12-27T09:03:59.698Z,6.34
2022-12-27T09:06:28.031Z,6.46
2022-12-27T09:08:56.447Z,6.64
2022-12-27T09:11:27.673Z,6.79
2022-12-27T09:13:56.236Z,6.91
2022-12-27T09:16:27.661Z,7.02
2022-12-27T09:18:57.862Z,7.17
2022-12-27T09:21:28.438Z,7.30
2022-12-27T09:23:56.659Z,7.44
2022-12-27T09:26:27.408Z,7.63
2022-12-27T09:28:56.476Z,7.82
2022-12-27T09:31:25.757Z,8.00
2022-12-27T09:33:54.880Z,8.17
2022-12-27T09:36:27.861Z,8.24
2022-12-27T09:38:57.853Z,8.30
2022-12-27T09:44:35.887Z,8.38
2022-12-27T09:47:43.438Z,8.41
2022-12-27T09:50:30.672Z,8.44
2022-12-27T09:53:19.071Z,8.47
2022-12-27T09:55:52.182Z,8.53
2022-12-27T09:58:28.864Z,8.57
2022-12-27T10:00:56.669Z,8.61
2022-12-27T10:03:27.612Z,8.69
2022-12-27T10:06:29.663Z,8.73
2022-12-27T10:09:04.055Z,8.79
2022-12-27T10:12:09.674Z,8.85
2022-12-27T10:15:03.795Z,8.88
2022-12-27T10:18:13.864Z,8.91
2022-12-27T10:21:03.546Z,8.91
2022-12-27T10:23:34.963Z,8.92
2022-12-27T10:26:15.203Z,8.94
2022-12-27T10:28:47.203Z,8.97
2022-12-27T10:31:18.577Z,9.00
2022-12-27T10:33:48.557Z,9.02
2022-12-27T10:36:28.588Z,9.04
2022-12-27T10:38:57.025Z,9.05
2022-12-27T10:41:50.450Z,9.05
2022-12-27T10:44:18.307Z,9.04
2022-12-27T10:46:52.832Z,9.02
2022-12-27T10:49:31.232Z,9.02
2022-12-27T10:52:07.299Z,9.00
2022-12-27T10:54:35.349Z,8.99
2022-12-27T10:57:18.976Z,8.97
2022-12-27T11:00:16.675Z,8.97
2022-12-27T11:03:03.539Z,9.00
2022-12-27T11:05:34.158Z,9.04
2022-12-27T11:08:20.449Z,9.06
2022-12-27T11:10:48.390Z,9.08
2022-12-27T11:13:19.593Z,9.09
2022-12-27T11:15:58.707Z,9.09
2022-12-27T11:18:27.205Z,9.10
2022-12-27T11:20:58.147Z,9.10
2022-12-27T11:23:36.140Z,9.11
2022-12-27T11:26:06.552Z,9.11
2022-12-27T11:28:42.378Z,9.11
2022-12-27T11:31:14.602Z,9.11
2022-12-27T11:33:54.981Z,9.09
2022-12-27T11:36:37.246Z,9.08
2022-12-27T11:39:05.392Z,9.07
2022-12-27T11:41:54.776Z,9.06
2022-12-27T11:44:28.459Z,9.04
2022-12-27T11:47:05.851Z,9.03
2022-12-27T11:49:43.768Z,9.03
2022-12-27T11:52:35.171Z,9.05
2022-12-27T11:55:21.605Z,9.06
2022-12-27T11:58:14.326Z,9.06
2022-12-27T12:01:13.356Z,9.08
2022-12-27T12:03:52.403Z,9.11
2022-12-27T12:06:35.411Z,9.14
2022-12-27T12:09:26.185Z,9.19
2022-12-27T12:12:11.133Z,9.23
2022-12-27T12:15:10.507Z,9.26
2022-12-27T12:17:50.719Z,9.27
2022-12-27T12:20:55.836Z,9.27
2022-12-27T12:23:48.510Z,9.25
2022-12-27T12:26:22.049Z,9.22
2022-12-27T12:29:30.305Z,9.20
2022-12-27T12:32:24.866Z,9.17
2022-12-27T12:34:52.724Z,9.17
2022-12-27T12:38:11.627Z,9.15
2022-12-27T12:41:06.561Z,9.08
2022-12-27T12:43:49.385Z,9.00
2022-12-27T12:46:38.598Z,8.94
2022-12-27T12:49:15.043Z,8.89
2022-12-27T12:52:09.960Z,8.85
2022-12-27T12:55:20.021Z,8.78
2022-12-27T12:58:08.786Z,8.70
2022-12-27T13:00:39.570Z,8.63
2022-12-27T13:03:45.963Z,8.59
2022-12-27T13:06:33.054Z,8.57
2022-12-27T13:09:04.051Z,8.54
2022-12-27T13:11:53.989Z,8.52
2022-12-27T13:14:29.030Z,8.50
2022-12-27T13:17:19.493Z,8.47
2022-12-27T13:20:03.438Z,8.47
2022-12-27T13:23:03.792Z,8.45
2022-12-27T13:25:58.858Z,8.43
2022-12-27T13:28:52.516Z,8.40
2022-12-27T13:31:39.255Z,8.38
2022-12-27T13:34:44.864Z,8.36
2022-12-27T13:37:38.960Z,8.30
2022-12-27T13:40:31.185Z,8.27
2022-12-27T13:43:06.051Z,8.23
2022-12-27T13:45:33.918Z,8.19
2022-12-27T13:48:13.816Z,8.15
2022-12-27T13:50:41.648Z,8.10
2022-12-27T13:53:40.221Z,8.05
2022-12-27T13:56:53.332Z,7.98
2022-12-27T13:59:34.627Z,7.90
2022-12-27T14:02:19.919Z,7.85
2022-12-27T14:05:25.883Z,7.80
2022-12-27T14:08:22.112Z,7.76
2022-12-27T14:10:58.625Z,7.71
2022-12-27T14:13:36.612Z,7.68
2022-12-27T14:16:25.877Z,7.64
2022-12-27T14:19:28.271Z,7.61
2022-12-27T14:22:05.055Z,7.59
2022-12-27T14:24:54.453Z,7.55
2022-12-27T14:27:22.177Z,7.51
2022-12-27T14:30:04.960Z,7.47
2022-12-27T14:32:49.171Z,7.42
2022-12-27T14:35:35.354Z,7.35
2022-12-27T14:38:41.472Z,7.28
2022-12-27T14:41:43.447Z,7.22
2022-12-27T14:44:30.321Z,7.16
2022-12-27T14:47:03.897Z,7.08
2022-12-27T14:50:13.316Z,7.03
2022-12-27T14:52:47.223Z,6.96
2022-12-27T14:55:47.171Z,6.91
2022-12-27T14:58:51.062Z,6.87
2022-12-27T15:01:25.130Z,6.83
2022-12-27T15:03:54.642Z,6.75
2022-12-27T15:07:00.596Z,6.63
2022-12-27T15:09:34.660Z,6.45
2022-12-27T15:12:23.959Z,6.31
2022-12-27T15:15:43.484Z,6.19
2022-12-27T15:18:39.624Z,6.05
2022-12-27T15:21:25.757Z,5.91
2022-12-27T15:24:11.997Z,5.79
2022-12-27T15:26:51.389Z,5.71
2022-12-27T15:29:45.595Z,5.63
2022-12-27T15:32:37.225Z,5.56
2022-12-27T15:35:07.977Z,5.51
2022-12-27T15:37:47.971Z,5.48
2022-12-27T15:40:34.368Z,5.45
2022-12-27T15:43:24.948Z,5.42
2022-12-27T15:46:08.379Z,5.36
2022-12-27T15:48:53.736Z,5.32
2022-12-27T15:52:03.454Z,5.28
2022-12-27T15:54:53.705Z,5.24
2022-12-27T15:57:48.218Z,5.21
2022-12-27T16:00:32.464Z,5.21
2022-12-27T16:03:25.780Z,5.19
2022-12-27T16:05:54.123Z,5.15
2022-12-27T16:08:31.277Z,5.13
2022-12-27T16:11:00.538Z,5.08
2022-12-27T16:13:45.624Z,5.03
2022-12-27T16:16:28.628Z,5.01
2022-12-27T16:19:24.154Z,4.96
2022-12-27T16:21:52.358Z,4.92
2022-12-27T16:24:24.974Z,4.90
2022-12-27T16:27:00.849Z,4.87
2022-12-27T16:29:43.380Z,4.82
2022-12-27T16:32:22.449Z,4.79
2022-12-27T16:34:55.456Z,4.76
2022-12-27T16:37:28.032Z,4.72
2022-12-27T16:39:55.990Z,4.68
2022-12-27T16:42:40.729Z,4.64
2022-12-27T16:45:39.850Z,4.62
2022-12-27T16:48:26.241Z,4.61
2022-12-27T16:51:01.200Z,4.57
2022-12-27T16:53:47.535Z,4.50
2022-12-27T16:56:18.279Z,4.44
2022-12-27T16:58:46.260Z,4.40
2022-12-27T17:01:26.727Z,4.38
2022-12-27T17:03:57.016Z,4.36
2022-12-27T17:06:32.449Z,4.33
2022-12-27T17:09:21.654Z,4.31
2022-12-27T17:11:52.287Z,4.27
2022-12-27T17:14:28.190Z,4.24
2022-12-27T17:16:57.400Z,4.22
2022-12-27T17:19:44.439Z,4.19
2022-12-27T17:22:15.667Z,4.16
2022-12-27T17:24:45.967Z,4.14
2022-12-27T17:27:29.288Z,4.13
2022-12-27T17:30:25.972Z,4.10
2022-12-27T17:33:14.153Z,4.09
2022-12-27T17:35:50.975Z,4.08
2022-12-27T17:38:43.471Z,4.07
2022-12-27T17:41:51.506Z,4.06
2022-12-27T17:44:53.374Z,4.05
2022-12-27T17:47:47.019Z,4.03
2022-12-27T17:50:20.162Z,3.99
2022-12-27T17:53:28.734Z,3.96
2022-12-27T17:56:42.292Z,3.93
2022-12-27T17:59:11.848Z,3.89
2022-12-27T18:01:49.578Z,3.87
2022-12-27T18:04:27.920Z,3.84
2022-12-27T18:06:58.494Z,3.82
2022-12-27T18:09:41.001Z,3.81
2022-12-27T18:12:20.299Z,3.81
2022-12-27T18:15:00.508Z,3.81
2022-12-27T18:17:47.432Z,3.81
2022-12-27T18:20:28.092Z,3.80
2022-12-27T18:23:02.933Z,3.79
2022-12-27T18:25:34.030Z,3.77
2022-12-27T18:28:06.568Z,3.72
2022-12-27T18:30:46.839Z,3.70
2022-12-27T18:33:17.617Z,3.68
2022-12-27T18:35:51.893Z,3.67
2022-12-27T18:38:38.424Z,3.66
2022-12-27T18:41:14.483Z,3.66
2022-12-27T18:43:47.035Z,3.64
2022-12-27T18:46:26.975Z,3.63
2022-12-27T18:48:55.033Z,3.63
2022-12-27T18:51:31.463Z,3.62
2022-12-27T18:54:00.595Z,3.60
2022-12-27T18:56:33.063Z,3.56
2022-12-27T18:59:13.099Z,3.53
2022-12-27T19:01:46.284Z,3.49
2022-12-27T19:04:20.047Z,3.46
2022-12-27T19:06:52.371Z,3.43
2022-12-27T19:09:23.248Z,3.39
2022-12-27T19:11:54.276Z,3.36
2022-12-27T19:14:23.125Z,3.33
2022-12-27T19:16:54.787Z,3.30
2022-12-27T19:19:26.327Z,3.28
2022-12-27T19:21:55.010Z,3.26
2022-12-27T19:24:29.457Z,3.25
2022-12-27T19:27:03.435Z,3.24
2022-12-27T19:29:37.912Z,3.23
2022-12-27T19:32:10.467Z,3.22
2022-12-27T19:34:45.609Z,3.19
2022-12-27T19:37:14.493Z,3.14
2022-12-27T19:39:45.666Z,3.12
2022-12-27T19:42:28.159Z,3.08
2022-12-27T19:44:56.468Z,3.05
2022-12-27T19:47:25.838Z,3.02
2022-12-27T19:49:53.723Z,2.97
2022-12-27T19:52:25.423Z,2.93
2022-12-27T19:55:00.406Z,2.87
2022-12-27T19:57:28.495Z,2.83
2022-12-27T19:59:56.454Z,2.79
2022-12-27T20:02:24.691Z,2.76
2022-12-27T20:04:53.534Z,2.73
2022-12-27T20:07:25.310Z,2.69
2022-12-27T20:09:53.200Z,2.67
2022-12-27T20:12:21.549Z,2.64
2022-12-27T20:14:49.374Z,2.63
2022-12-27T20:17:17.232Z,2.62
2022-12-27T20:19:45.163Z,2.61
2022-12-27T20:22:13.237Z,2.61
2022-12-27T20:24:41.087Z,2.60
2022-12-27T20:27:08.936Z,2.60
2022-12-27T20:29:36.930Z,2.60
2022-12-27T20:32:05.073Z,2.59
2022-12-27T20:34:32.950Z,2.58
2022-12-27T20:37:00.897Z,2.57
2022-12-27T20:39:29.899Z,2.56
2022-12-27T20:41:57.839Z,2.55
2022-12-27T20:44:25.814Z,2.54
2022-12-27T20:46:53.772Z,2.53
2022-12-27T20:49:23.003Z,2.51
2022-12-27T20:51:50.946Z,2.50
2022-12-27T20:54:18.831Z,2.50
2022-12-27T20:56:46.611Z,2.48
2022-12-27T20:59:14.495Z,2.47
2022-12-27T21:01:42.683Z,2.47
2022-12-27T21:04:11.134Z,2.48
2022-12-27T21:06:39.151Z,2.49
2022-12-27T21:09:08.709Z,2.49
2022-12-27T21:11:36.842Z,2.50
2022-12-27T21:14:05.180Z,2.51
2022-12-27T21:16:34.783Z,2.50
2022-12-27T21:19:05.035Z,2.49
2022-12-27T21:21:35.672Z,2.50
2022-12-27T21:24:04.639Z,2.50
2022-12-27T21:26:35.551Z,2.49
2022-12-27T21:29:05.888Z,2.49
2022-12-27T21:31:34.807Z,2.49
2022-12-27T21:34:04.027Z,2.49
2022-12-27T21:36:34.073Z,2.47
2022-12-27T21:39:03.148Z,2.46
2022-12-27T21:41:34.164Z,2.45
2022-12-27T21:44:03.433Z,2.45
2022-12-27T21:46:42.225Z,2.45
2022-12-27T21:49:13.167Z,2.46
2022-12-27T21:51:43.307Z,2.48
2022-12-27T21:54:13.864Z,2.48
2022-12-27T21:56:42.052Z,2.48
2022-12-27T21:59:12.795Z,2.49
2022-12-27T22:01:50.380Z,2.48
2022-12-27T22:04:21.505Z,2.48
2022-12-27T22:06:50.146Z,2.47
2022-12-27T22:09:19.396Z,2.45
2022-12-27T22:11:48.170Z,2.46
2022-12-27T22:14:16.807Z,2.46
2022-12-27T22:16:44.753Z,2.46
2022-12-27T22:19:13.635Z,2.46
2022-12-27T22:21:42.742Z,2.46
2022-12-27T22:24:19.856Z,2.45
2022-12-27T22:26:50.185Z,2.44
2022-12-27T22:29:18.541Z,2.44
2022-12-27T22:31:46.864Z,2.43
2022-12-27T22:34:14.877Z,2.42
2022-12-27T22:36:42.802Z,2.43
2022-12-27T22:39:10.764Z,2.42
2022-12-27T22:41:38.795Z,2.41
2022-12-27T22:44:10.562Z,2.40
2022-12-27T22:47:25.585Z,2.40
2022-12-27T22:49:27.166Z,2.41
2022-12-27T22:51:55.003Z,2.41
2022-12-27T22:55:02.983Z,2.42
2022-12-27T22:57:10.698Z,2.41
2022-12-27T22:59:38.553Z,2.41
2022-12-27T23:02:06.487Z,2.40
2022-12-27T23:04:34.669Z,2.40
2022-12-27T23:07:02.591Z,2.40
2022-12-27T23:09:30.800Z,2.39
2022-12-27T23:11:59.039Z,2.38
2022-12-27T23:14:27.222Z,2.38
2022-12-27T23:16:55.137Z,2.37
2022-12-27T23:19:24.398Z,2.37
2022-12-27T23:21:52.327Z,2.38
2022-12-27T23:24:20.442Z,2.39
2022-12-27T23:26:48.421Z,2.37
2022-12-27T23:29:16.335Z,2.36
2022-12-27T23:31:55.266Z,2.33
2022-12-27T23:34:28.394Z,2.30
2022-12-27T23:36:58.717Z,2.27
2022-12-27T23:39:27.171Z,2.25
2022-12-27T23:41:55.557Z,2.24
2022-12-27T23:44:33.399Z,2.24
2022-12-27T23:47:05.261Z,2.23
2022-12-27T23:49:34.122Z,2.23
2022-12-27T23:52:02.945Z,2.22
2022-12-27T23:54:30.911Z,2.21
2022-12-27T23:57:19.999Z,2.20
2022-12-27T23:59:46.933Z,2.19
